Terminal Aerodrome Forecast
Issued by NWS Louisville, KY

Home | Current Version | Previous Version | Text Only | Print | Product List | Glossary On
Versions: 1 2 3 4 5 6 7 8 9 10 11 12 13 14 15 16 17 18 19 20 21 22
175
FTUS43 KLMK 170511 AAA
TAFBWG
TAF AMD
KBWG 170511Z 1705/1724 00000KT 2SM BR SKC
      TEMPO 1705/1709 1/2SM FG
     FM170900 00000KT 1SM BR SKC
      TEMPO 1709/1712 1/2SM FG
     FM171230 00000KT 4SM BR FEW005
     FM171330 11004KT P6SM FEW045=

USA.gov is the U.S. government's official web portal to all federal, state and local government web resources and services.